Terminal Aerodrome Forecast
Issued by NWS Tulsa, OK

Home | Current Version | Previous Version | Text Only | Print | Product List | Glossary On
Versions: 1 2 3 4 5 6 7 8 9 10 11 12 13 14
000
FTUS44 KTSA 270520
TAFFSM
TAF
KFSM 270520Z 2706/2806 17003KT P6SM SKC
     FM271400 22008KT P6SM FEW050 BKN250
     FM280000 21008KT P6SM SCT050 BKN100 PROB30 2800/2806 5SM -TSRA
      BR BKN040CB=

USA.gov is the U.S. government's official web portal to all federal, state and local government web resources and services.